sensor_id;sensor_type;location;lat;lon;timestamp;temperature;humidity
38209;DHT22;24016;52.102;11.584;2023-03-01T00:01:02;-4.00;99.90
38209;DHT22;24016;52.102;11.584;2023-03-01T00:03:27;-4.00;99.90
38209;DHT22;24016;52.102;11.584;2023-03-01T00:05:53;-4.10;99.90
38209;DHT22;24016;52.102;11.584;2023-03-01T00:08:18;-4.10;99.90
38209;DHT22;24016;52.102;11.584;2023-03-01T00:10:44;-4.10;99.90
38209;DHT22;24016;52.102;11.584;2023-03-01T00:13:09;-4.10;99.90
38209;DHT22;24016;52.102;11.584;2023-03-01T00:15:38;-4.10;99.90
38209;DHT22;24016;52.102;11.584;2023-03-01T00:18:04;-4.00;99.90
38209;DHT22;24016;52.102;11.584;2023-03-01T00:20:29;-4.10;99.90
38209;DHT22;24016;52.102;11.584;2023-03-01T00:22:55;-4.10;99.90
38209;DHT22;24016;52.102;11.584;2023-03-01T00:25:21;-4.10;99.90
38209;DHT22;24016;52.102;11.584;2023-03-01T00:27:47;-4.10;99.90
38209;DHT22;24016;52.102;11.584;2023-03-01T00:30:14;-4.20;99.90
38209;DHT22;24016;52.102;11.584;2023-03-01T00:32:40;-4.20;99.90
38209;DHT22;24016;52.102;11.584;2023-03-01T00:35:05;-4.20;99.90
38209;DHT22;24016;52.102;11.584;2023-03-01T00:37:31;-4.20;99.90
38209;DHT22;24016;52.102;11.584;2023-03-01T00:39:56;-4.20;99.90
38209;DHT22;24016;52.102;11.584;2023-03-01T00:42:22;-4.20;99.90
38209;DHT22;24016;52.102;11.584;2023-03-01T00:44:48;-4.20;99.90
38209;DHT22;24016;52.102;11.584;2023-03-01T00:47:14;-4.20;99.90
38209;DHT22;24016;52.102;11.584;2023-03-01T00:49:39;-4.20;99.90
38209;DHT22;24016;52.102;11.584;2023-03-01T00:52:05;-4.20;99.90
38209;DHT22;24016;52.102;11.584;2023-03-01T00:54:31;-4.20;99.90
38209;DHT22;24016;52.102;11.584;2023-03-01T00:56:56;-4.20;99.90
38209;DHT22;24016;52.102;11.584;2023-03-01T00:59:22;-4.20;99.90
38209;DHT22;24016;52.102;11.584;2023-03-01T01:01:48;-4.30;99.90
38209;DHT22;24016;52.102;11.584;2023-03-01T01:04:13;-4.20;99.90
38209;DHT22;24016;52.102;11.584;2023-03-01T01:06:46;-4.20;99.90
38209;DHT22;24016;52.102;11.584;2023-03-01T01:09:14;-4.20;99.90
38209;DHT22;24016;52.102;11.584;2023-03-01T01:11:47;-4.20;99.90
38209;DHT22;24016;52.102;11.584;2023-03-01T01:14:13;-4.30;99.90
38209;DHT22;24016;52.102;11.584;2023-03-01T01:16:39;-4.30;99.90
38209;DHT22;24016;52.102;11.584;2023-03-01T01:19:04;-4.30;99.90
38209;DHT22;24016;52.102;11.584;2023-03-01T01:21:30;-4.40;99.90
38209;DHT22;24016;52.102;11.584;2023-03-01T01:23:57;-4.40;99.90
38209;DHT22;24016;52.102;11.584;2023-03-01T01:26:28;-4.40;99.90
38209;DHT22;24016;52.102;11.584;2023-03-01T01:28:54;-4.40;99.90
38209;DHT22;24016;52.102;11.584;2023-03-01T01:31:20;-4.40;99.90
38209;DHT22;24016;52.102;11.584;2023-03-01T01:33:49;-4.50;99.90
38209;DHT22;24016;52.102;11.584;2023-03-01T01:36:15;-4.60;99.90
38209;DHT22;24016;52.102;11.584;2023-03-01T01:38:41;-4.60;99.90
38209;DHT22;24016;52.102;11.584;2023-03-01T01:41:08;-4.60;99.90
38209;DHT22;24016;52.102;11.584;2023-03-01T01:43:42;-4.70;99.90
38209;DHT22;24016;52.102;11.584;2023-03-01T01:46:33;-4.70;99.90
38209;DHT22;24016;52.102;11.584;2023-03-01T01:49:05;-4.70;99.90
38209;DHT22;24016;52.102;11.584;2023-03-01T01:51:37;-4.70;99.90
38209;DHT22;24016;52.102;11.584;2023-03-01T01:54:12;-4.80;99.90
38209;DHT22;24016;52.102;11.584;2023-03-01T01:56:43;-4.80;99.90
38209;DHT22;24016;52.102;11.584;2023-03-01T01:59:09;-4.80;99.90
38209;DHT22;24016;52.102;11.584;2023-03-01T02:01:35;-4.90;99.90
38209;DHT22;24016;52.102;11.584;2023-03-01T02:04:01;-4.90;99.90
38209;DHT22;24016;52.102;11.584;2023-03-01T02:06:39;-4.80;99.90
38209;DHT22;24016;52.102;11.584;2023-03-01T02:09:12;-4.80;99.90
38209;DHT22;24016;52.102;11.584;2023-03-01T02:11:38;-4.80;99.90
38209;DHT22;24016;52.102;11.584;2023-03-01T02:14:04;-4.90;99.90
38209;DHT22;24016;52.102;11.584;2023-03-01T02:16:30;-4.90;99.90
38209;DHT22;24016;52.102;11.584;2023-03-01T02:18:56;-4.80;99.90
38209;DHT22;24016;52.102;11.584;2023-03-01T02:21:52;-4.80;99.90
38209;DHT22;24016;52.102;11.584;2023-03-01T02:27:22;-4.80;99.90
38209;DHT22;24016;52.102;11.584;2023-03-01T02:29:51;-4.90;99.90
38209;DHT22;24016;52.102;11.584;2023-03-01T02:32:17;-4.90;99.90
38209;DHT22;24016;52.102;11.584;2023-03-01T02:34:56;-4.90;99.90
38209;DHT22;24016;52.102;11.584;2023-03-01T02:37:22;-4.90;99.90
38209;DHT22;24016;52.102;11.584;2023-03-01T02:40:14;-4.90;99.90
38209;DHT22;24016;52.102;11.584;2023-03-01T02:42:45;-4.90;99.90
38209;DHT22;24016;52.102;11.584;2023-03-01T02:45:12;-5.00;99.90
38209;DHT22;24016;52.102;11.584;2023-03-01T02:47:38;-5.00;99.90
38209;DHT22;24016;52.102;11.584;2023-03-01T02:53:23;-5.00;99.90
38209;DHT22;24016;52.102;11.584;2023-03-01T02:55:50;-5.10;99.90
38209;DHT22;24016;52.102;11.584;2023-03-01T02:58:16;-5.10;99.90
38209;DHT22;24016;52.102;11.584;2023-03-01T03:00:42;-5.20;99.90
38209;DHT22;24016;52.102;11.584;2023-03-01T03:03:14;-5.20;99.90
38209;DHT22;24016;52.102;11.584;2023-03-01T03:05:40;-5.20;99.90
38209;DHT22;24016;52.102;11.584;2023-03-01T03:08:05;-5.20;99.90
38209;DHT22;24016;52.102;11.584;2023-03-01T03:10:35;-5.20;99.90
38209;DHT22;24016;52.102;11.584;2023-03-01T03:13:07;-5.30;99.90
38209;DHT22;24016;52.102;11.584;2023-03-01T03:15:33;-5.30;99.90
38209;DHT22;24016;52.102;11.584;2023-03-01T03:18:06;-5.30;99.90
38209;DHT22;24016;52.102;11.584;2023-03-01T03:20:33;-5.30;99.90
38209;DHT22;24016;52.102;11.584;2023-03-01T03:22:58;-5.40;99.90
38209;DHT22;24016;52.102;11.584;2023-03-01T03:25:25;-5.30;99.90
38209;DHT22;24016;52.102;11.584;2023-03-01T03:27:52;-5.30;99.90
38209;DHT22;24016;52.102;11.584;2023-03-01T03:30:31;-5.20;99.90
38209;DHT22;24016;52.102;11.584;2023-03-01T03:32:58;-5.20;99.90
38209;DHT22;24016;52.102;11.584;2023-03-01T03:35:27;-5.20;99.90
38209;DHT22;24016;52.102;11.584;2023-03-01T03:37:55;-5.20;99.90
38209;DHT22;24016;52.102;11.584;2023-03-01T03:40:34;-5.30;99.90
38209;DHT22;24016;52.102;11.584;2023-03-01T03:43:01;-5.30;99.90
38209;DHT22;24016;52.102;11.584;2023-03-01T03:45:26;-5.30;99.90
38209;DHT22;24016;52.102;11.584;2023-03-01T03:47:52;-5.40;99.90
38209;DHT22;24016;52.102;11.584;2023-03-01T03:50:18;-5.40;99.90
38209;DHT22;24016;52.102;11.584;2023-03-01T03:52:43;-5.40;99.90
38209;DHT22;24016;52.102;11.584;2023-03-01T03:55:10;-5.40;99.90
38209;DHT22;24016;52.102;11.584;2023-03-01T03:57:38;-5.50;99.90
38209;DHT22;24016;52.102;11.584;2023-03-01T04:00:05;-5.50;99.90
38209;DHT22;24016;52.102;11.584;2023-03-01T04:02:38;-5.50;99.90
38209;DHT22;24016;52.102;11.584;2023-03-01T04:05:04;-5.50;99.90
38209;DHT22;24016;52.102;11.584;2023-03-01T04:07:30;-5.50;99.90
38209;DHT22;24016;52.102;11.584;2023-03-01T04:09:55;-5.50;99.90
38209;DHT22;24016;52.102;11.584;2023-03-01T04:12:21;-5.50;99.90
38209;DHT22;24016;52.102;11.584;2023-03-01T04:14:48;-5.50;99.90
38209;DHT22;24016;52.102;11.584;2023-03-01T04:17:13;-5.50;99.90
38209;DHT22;24016;52.102;11.584;2023-03-01T04:19:39;-5.60;99.90
38209;DHT22;24016;52.102;11.584;2023-03-01T04:22:05;-5.60;99.90
38209;DHT22;24016;52.102;11.584;2023-03-01T04:24:35;-5.60;99.90
38209;DHT22;24016;52.102;11.584;2023-03-01T04:27:01;-5.60;99.90
38209;DHT22;24016;52.102;11.584;2023-03-01T04:29:26;-5.60;99.90
38209;DHT22;24016;52.102;11.584;2023-03-01T04:31:52;-5.70;99.90
38209;DHT22;24016;52.102;11.584;2023-03-01T04:34:18;-5.70;99.90
38209;DHT22;24016;52.102;11.584;2023-03-01T04:36:44;-5.70;99.90
38209;DHT22;24016;52.102;11.584;2023-03-01T04:39:09;-5.70;99.90
38209;DHT22;24016;52.102;11.584;2023-03-01T04:41:38;-5.70;99.90
38209;DHT22;24016;52.102;11.584;2023-03-01T04:44:05;-5.70;99.90
38209;DHT22;24016;52.102;11.584;2023-03-01T04:46:30;-5.80;99.90
38209;DHT22;24016;52.102;11.584;2023-03-01T04:48:56;-5.80;99.90
38209;DHT22;24016;52.102;11.584;2023-03-01T04:51:21;-5.70;99.90
38209;DHT22;24016;52.102;11.584;2023-03-01T04:53:47;-5.80;99.90
38209;DHT22;24016;52.102;11.584;2023-03-01T04:56:13;-5.80;99.90
38209;DHT22;24016;52.102;11.584;2023-03-01T04:58:45;-5.80;99.90
38209;DHT22;24016;52.102;11.584;2023-03-01T05:01:17;-5.80;99.90
38209;DHT22;24016;52.102;11.584;2023-03-01T05:03:44;-5.70;99.90
38209;DHT22;24016;52.102;11.584;2023-03-01T05:06:10;-5.70;99.90
38209;DHT22;24016;52.102;11.584;2023-03-01T05:08:37;-5.70;99.90
38209;DHT22;24016;52.102;11.584;2023-03-01T05:11:03;-5.80;99.90
38209;DHT22;24016;52.102;11.584;2023-03-01T05:13:28;-5.80;99.90
38209;DHT22;24016;52.102;11.584;2023-03-01T05:15:59;-5.80;99.90
38209;DHT22;24016;52.102;11.584;2023-03-01T05:18:26;-5.80;99.90
38209;DHT22;24016;52.102;11.584;2023-03-01T05:20:55;-5.80;99.90
38209;DHT22;24016;52.102;11.584;2023-03-01T05:23:22;-5.90;99.90
38209;DHT22;24016;52.102;11.584;2023-03-01T05:25:48;-5.90;99.90
38209;DHT22;24016;52.102;11.584;2023-03-01T05:28:14;-5.90;99.90
38209;DHT22;24016;52.102;11.584;2023-03-01T05:30:40;-5.90;99.90
38209;DHT22;24016;52.102;11.584;2023-03-01T05:33:07;-5.90;99.90
38209;DHT22;24016;52.102;11.584;2023-03-01T05:35:39;-5.90;99.90
38209;DHT22;24016;52.102;11.584;2023-03-01T05:38:05;-5.90;99.90
38209;DHT22;24016;52.102;11.584;2023-03-01T05:40:33;-5.90;99.90
38209;DHT22;24016;52.102;11.584;2023-03-01T05:42:59;-5.90;99.90
38209;DHT22;24016;52.102;11.584;2023-03-01T05:45:26;-5.90;99.90
38209;DHT22;24016;52.102;11.584;2023-03-01T05:47:52;-5.90;99.90
38209;DHT22;24016;52.102;11.584;2023-03-01T05:50:25;-5.90;99.90
38209;DHT22;24016;52.102;11.584;2023-03-01T05:53:02;-5.90;99.90
38209;DHT22;24016;52.102;11.584;2023-03-01T05:55:29;-6.00;99.90
38209;DHT22;24016;52.102;11.584;2023-03-01T05:57:57;-6.00;99.90
38209;DHT22;24016;52.102;11.584;2023-03-01T06:00:23;-6.00;99.90
38209;DHT22;24016;52.102;11.584;2023-03-01T06:02:48;-6.00;99.90
38209;DHT22;24016;52.102;11.584;2023-03-01T06:05:15;-5.90;99.90
38209;DHT22;24016;52.102;11.584;2023-03-01T06:07:41;-5.90;99.90
38209;DHT22;24016;52.102;11.584;2023-03-01T06:10:08;-5.80;99.90
38209;DHT22;24016;52.102;11.584;2023-03-01T06:12:35;-5.90;99.90
38209;DHT22;24016;52.102;11.584;2023-03-01T06:15:00;-5.90;99.90
38209;DHT22;24016;52.102;11.584;2023-03-01T06:17:29;-5.90;99.90
38209;DHT22;24016;52.102;11.584;2023-03-01T06:19:55;-5.80;99.90
38209;DHT22;24016;52.102;11.584;2023-03-01T06:22:20;-5.70;99.90
38209;DHT22;24016;52.102;11.584;2023-03-01T06:24:46;-5.70;99.90
38209;DHT22;24016;52.102;11.584;2023-03-01T06:27:11;-5.60;99.90
38209;DHT22;24016;52.102;11.584;2023-03-01T06:29:37;-5.50;99.90
38209;DHT22;24016;52.102;11.584;2023-03-01T06:32:03;-5.50;99.90
38209;DHT22;24016;52.102;11.584;2023-03-01T06:34:29;-5.40;99.90
38209;DHT22;24016;52.102;11.584;2023-03-01T06:36:54;-5.20;99.90
38209;DHT22;24016;52.102;11.584;2023-03-01T06:39:20;-5.00;99.90
38209;DHT22;24016;52.102;11.584;2023-03-01T06:41:45;-4.80;99.90
38209;DHT22;24016;52.102;11.584;2023-03-01T06:44:11;-4.50;99.90
38209;DHT22;24016;52.102;11.584;2023-03-01T06:46:38;-4.20;99.90
38209;DHT22;24016;52.102;11.584;2023-03-01T06:49:03;-3.90;99.90
38209;DHT22;24016;52.102;11.584;2023-03-01T06:51:33;-3.80;99.90
38209;DHT22;24016;52.102;11.584;2023-03-01T06:53:58;-3.60;99.90
38209;DHT22;24016;52.102;11.584;2023-03-01T06:56:24;-3.20;99.90
38209;DHT22;24016;52.102;11.584;2023-03-01T06:58:49;-2.80;99.90
38209;DHT22;24016;52.102;11.584;2023-03-01T07:01:15;-2.50;99.90
38209;DHT22;24016;52.102;11.584;2023-03-01T07:03:40;-2.10;99.90
38209;DHT22;24016;52.102;11.584;2023-03-01T07:06:09;-1.80;99.90
38209;DHT22;24016;52.102;11.584;2023-03-01T07:08:35;-1.50;99.90
38209;DHT22;24016;52.102;11.584;2023-03-01T07:11:00;-1.30;99.90
38209;DHT22;24016;52.102;11.584;2023-03-01T07:13:27;-1.10;99.90
38209;DHT22;24016;52.102;11.584;2023-03-01T07:15:53;-0.90;99.90
38209;DHT22;24016;52.102;11.584;2023-03-01T07:18:19;-0.70;99.90
38209;DHT22;24016;52.102;11.584;2023-03-01T07:20:45;-0.70;99.90
38209;DHT22;24016;52.102;11.584;2023-03-01T07:23:10;-0.90;99.90
38209;DHT22;24016;52.102;11.584;2023-03-01T07:25:36;-1.00;99.90
38209;DHT22;24016;52.102;11.584;2023-03-01T07:28:01;-1.20;99.90
38209;DHT22;24016;52.102;11.584;2023-03-01T07:30:27;-1.20;99.90
38209;DHT22;24016;52.102;11.584;2023-03-01T07:32:54;-1.20;99.90
38209;DHT22;24016;52.102;11.584;2023-03-01T07:35:20;-1.30;99.90
38209;DHT22;24016;52.102;11.584;2023-03-01T07:37:46;-1.20;99.90
38209;DHT22;24016;52.102;11.584;2023-03-01T07:40:12;-1.10;99.90
38209;DHT22;24016;52.102;11.584;2023-03-01T07:42:37;-1.00;99.90
38209;DHT22;24016;52.102;11.584;2023-03-01T07:45:05;-0.90;99.90
38209;DHT22;24016;52.102;11.584;2023-03-01T07:47:31;-0.70;99.90
38209;DHT22;24016;52.102;11.584;2023-03-01T07:49:57;-0.50;99.90
38209;DHT22;24016;52.102;11.584;2023-03-01T07:52:22;-0.40;99.90
38209;DHT22;24016;52.102;11.584;2023-03-01T07:54:48;-0.20;99.90
38209;DHT22;24016;52.102;11.584;2023-03-01T07:57:13;0.10;99.90
38209;DHT22;24016;52.102;11.584;2023-03-01T07:59:39;0.30;99.90
38209;DHT22;24016;52.102;11.584;2023-03-01T08:02:05;0.60;99.90
38209;DHT22;24016;52.102;11.584;2023-03-01T08:04:31;0.90;99.90
38209;DHT22;24016;52.102;11.584;2023-03-01T08:06:57;1.30;99.90
38209;DHT22;24016;52.102;11.584;2023-03-01T08:09:23;1.60;99.90
38209;DHT22;24016;52.102;11.584;2023-03-01T08:11:49;1.70;99.90
38209;DHT22;24016;52.102;11.584;2023-03-01T08:14:14;1.80;99.90
38209;DHT22;24016;52.102;11.584;2023-03-01T08:16:40;2.20;99.90
38209;DHT22;24016;52.102;11.584;2023-03-01T08:19:07;2.50;99.90
38209;DHT22;24016;52.102;11.584;2023-03-01T08:21:33;2.60;99.90
38209;DHT22;24016;52.102;11.584;2023-03-01T08:24:00;2.60;99.90
38209;DHT22;24016;52.102;11.584;2023-03-01T08:26:26;2.90;99.90
38209;DHT22;24016;52.102;11.584;2023-03-01T08:28:51;3.10;99.90
38209;DHT22;24016;52.102;11.584;2023-03-01T08:33:43;3.70;99.90
38209;DHT22;24016;52.102;11.584;2023-03-01T08:36:08;4.20;99.90
38209;DHT22;24016;52.102;11.584;2023-03-01T08:38:34;4.10;99.90
38209;DHT22;24016;52.102;11.584;2023-03-01T08:41:01;4.10;99.90
38209;DHT22;24016;52.102;11.584;2023-03-01T08:43:27;4.20;99.90
38209;DHT22;24016;52.102;11.584;2023-03-01T08:45:52;4.50;99.90
38209;DHT22;24016;52.102;11.584;2023-03-01T08:48:18;4.70;99.90
38209;DHT22;24016;52.102;11.584;2023-03-01T08:50:44;4.80;99.90
38209;DHT22;24016;52.102;11.584;2023-03-01T08:53:09;4.80;99.90
38209;DHT22;24016;52.102;11.584;2023-03-01T08:55:35;4.70;99.90
38209;DHT22;24016;52.102;11.584;2023-03-01T08:58:00;4.50;99.90
38209;DHT22;24016;52.102;11.584;2023-03-01T09:00:26;4.80;99.90
38209;DHT22;24016;52.102;11.584;2023-03-01T09:02:51;5.00;99.90
38209;DHT22;24016;52.102;11.584;2023-03-01T09:05:17;4.80;99.90
38209;DHT22;24016;52.102;11.584;2023-03-01T09:07:42;4.60;99.90
38209;DHT22;24016;52.102;11.584;2023-03-01T09:10:08;4.90;99.90
38209;DHT22;24016;52.102;11.584;2023-03-01T09:12:34;5.20;99.90
38209;DHT22;24016;52.102;11.584;2023-03-01T09:15:00;5.90;99.90
38209;DHT22;24016;52.102;11.584;2023-03-01T09:17:25;6.30;99.90
38209;DHT22;24016;52.102;11.584;2023-03-01T09:19:51;6.30;99.90
38209;DHT22;24016;52.102;11.584;2023-03-01T09:22:16;6.20;99.90
38209;DHT22;24016;52.102;11.584;2023-03-01T09:24:42;6.20;99.90
38209;DHT22;24016;52.102;11.584;2023-03-01T09:27:07;5.70;99.90
38209;DHT22;24016;52.102;11.584;2023-03-01T09:29:37;5.50;99.90
38209;DHT22;24016;52.102;11.584;2023-03-01T09:32:02;6.00;99.90
38209;DHT22;24016;52.102;11.584;2023-03-01T09:34:28;6.70;99.90
38209;DHT22;24016;52.102;11.584;2023-03-01T09:36:53;6.70;99.90
38209;DHT22;24016;52.102;11.584;2023-03-01T09:39:19;6.80;99.90
38209;DHT22;24016;52.102;11.584;2023-03-01T09:44:38;7.50;99.90
38209;DHT22;24016;52.102;11.584;2023-03-01T09:47:08;7.70;99.90
38209;DHT22;24016;52.102;11.584;2023-03-01T09:49:36;8.30;99.90
38209;DHT22;24016;52.102;11.584;2023-03-01T09:52:26;8.70;99.90
38209;DHT22;24016;52.102;11.584;2023-03-01T09:54:55;9.70;99.90
38209;DHT22;24016;52.102;11.584;2023-03-01T10:00:36;10.10;99.90
38209;DHT22;24016;52.102;11.584;2023-03-01T10:03:34;9.10;99.90
38209;DHT22;24016;52.102;11.584;2023-03-01T10:06:04;9.50;99.90
38209;DHT22;24016;52.102;11.584;2023-03-01T10:08:53;9.30;99.90
38209;DHT22;24016;52.102;11.584;2023-03-01T10:11:22;9.10;99.90
38209;DHT22;24016;52.102;11.584;2023-03-01T10:13:59;9.50;99.90
38209;DHT22;24016;52.102;11.584;2023-03-01T10:16:38;10.10;99.90
38209;DHT22;24016;52.102;11.584;2023-03-01T10:19:06;10.60;99.20
38209;DHT22;24016;52.102;11.584;2023-03-01T10:21:41;11.10;98.80
38209;DHT22;24016;52.102;11.584;2023-03-01T10:24:12;10.70;98.80
38209;DHT22;24016;52.102;11.584;2023-03-01T10:26:50;10.80;99.10
38209;DHT22;24016;52.102;11.584;2023-03-01T10:29:16;10.40;98.90
38209;DHT22;24016;52.102;11.584;2023-03-01T10:31:48;10.10;99.60
38209;DHT22;24016;52.102;11.584;2023-03-01T10:34:19;10.00;99.00
38209;DHT22;24016;52.102;11.584;2023-03-01T10:36:50;10.20;99.00
38209;DHT22;24016;52.102;11.584;2023-03-01T10:39:24;10.70;98.60
38209;DHT22;24016;52.102;11.584;2023-03-01T10:42:04;11.40;97.70
38209;DHT22;24016;52.102;11.584;2023-03-01T10:44:57;11.10;97.40
38209;DHT22;24016;52.102;11.584;2023-03-01T10:47:25;11.00;98.00
38209;DHT22;24016;52.102;11.584;2023-03-01T10:50:08;10.90;97.60
38209;DHT22;24016;52.102;11.584;2023-03-01T10:52:56;10.80;97.50
38209;DHT22;24016;52.102;11.584;2023-03-01T10:55:30;11.30;97.30
38209;DHT22;24016;52.102;11.584;2023-03-01T10:58:20;11.70;97.40
38209;DHT22;24016;52.102;11.584;2023-03-01T11:00:51;11.10;97.40
38209;DHT22;24016;52.102;11.584;2023-03-01T11:03:27;11.80;96.40
38209;DHT22;24016;52.102;11.584;2023-03-01T11:06:20;12.70;96.30
38209;DHT22;24016;52.102;11.584;2023-03-01T11:08:49;12.90;95.80
38209;DHT22;24016;52.102;11.584;2023-03-01T11:11:20;12.30;96.10
38209;DHT22;24016;52.102;11.584;2023-03-01T11:16:33;11.40;96.50
38209;DHT22;24016;52.102;11.584;2023-03-01T11:21:38;11.50;96.20
38209;DHT22;24016;52.102;11.584;2023-03-01T11:24:10;12.30;94.60
38209;DHT22;24016;52.102;11.584;2023-03-01T11:26:41;13.00;94.50
38209;DHT22;24016;52.102;11.584;2023-03-01T11:29:18;13.30;94.00
38209;DHT22;24016;52.102;11.584;2023-03-01T11:31:47;12.60;95.30
38209;DHT22;24016;52.102;11.584;2023-03-01T11:34:23;12.50;94.60
38209;DHT22;24016;52.102;11.584;2023-03-01T11:37:03;12.60;94.80
38209;DHT22;24016;52.102;11.584;2023-03-01T11:39:38;13.30;93.70
38209;DHT22;24016;52.102;11.584;2023-03-01T11:44:48;13.20;93.50
38209;DHT22;24016;52.102;11.584;2023-03-01T11:47:38;12.60;93.50
38209;DHT22;24016;52.102;11.584;2023-03-01T11:50:18;11.90;93.80
38209;DHT22;24016;52.102;11.584;2023-03-01T11:56:00;12.60;94.20
38209;DHT22;24016;52.102;11.584;2023-03-01T11:58:59;13.10;92.90
38209;DHT22;24016;52.102;11.584;2023-03-01T12:01:43;13.60;93.10
38209;DHT22;24016;52.102;11.584;2023-03-01T12:07:27;13.90;91.30
38209;DHT22;24016;52.102;11.584;2023-03-01T12:21:12;13.50;91.50
38209;DHT22;24016;52.102;11.584;2023-03-01T12:24:08;13.30;91.00
38209;DHT22;24016;52.102;11.584;2023-03-01T12:26:42;13.10;91.20
38209;DHT22;24016;52.102;11.584;2023-03-01T12:29:24;12.80;91.90
38209;DHT22;24016;52.102;11.584;2023-03-01T12:32:10;12.20;92.20
38209;DHT22;24016;52.102;11.584;2023-03-01T12:35:00;12.80;91.90
38209;DHT22;24016;52.102;11.584;2023-03-01T12:37:42;12.90;91.80
38209;DHT22;24016;52.102;11.584;2023-03-01T12:43:13;12.50;91.50
38209;DHT22;24016;52.102;11.584;2023-03-01T12:45:54;12.10;91.20
38209;DHT22;24016;52.102;11.584;2023-03-01T12:51:20;12.10;91.60
38209;DHT22;24016;52.102;11.584;2023-03-01T12:53:50;11.30;92.30
38209;DHT22;24016;52.102;11.584;2023-03-01T12:56:28;10.50;92.40
38209;DHT22;24016;52.102;11.584;2023-03-01T12:59:14;10.40;92.40
38209;DHT22;24016;52.102;11.584;2023-03-01T13:01:56;10.50;92.10
38209;DHT22;24016;52.102;11.584;2023-03-01T13:04:50;9.90;93.00
38209;DHT22;24016;52.102;11.584;2023-03-01T13:07:21;10.00;91.90
38209;DHT22;24016;52.102;11.584;2023-03-01T13:12:42;9.50;93.70
38209;DHT22;24016;52.102;11.584;2023-03-01T13:17:48;9.40;93.50
38209;DHT22;24016;52.102;11.584;2023-03-01T13:20:19;9.20;93.00
38209;DHT22;24016;52.102;11.584;2023-03-01T13:23:07;9.40;93.20
38209;DHT22;24016;52.102;11.584;2023-03-01T13:25:34;8.80;94.00
38209;DHT22;24016;52.102;11.584;2023-03-01T13:30:57;8.00;94.50
38209;DHT22;24016;52.102;11.584;2023-03-01T13:35:51;7.90;95.00
38209;DHT22;24016;52.102;11.584;2023-03-01T13:46:50;7.40;94.40
38209;DHT22;24016;52.102;11.584;2023-03-01T13:49:20;7.40;94.40
38209;DHT22;24016;52.102;11.584;2023-03-01T13:51:47;7.40;95.20
38209;DHT22;24016;52.102;11.584;2023-03-01T13:54:25;7.50;94.90
38209;DHT22;24016;52.102;11.584;2023-03-01T13:56:51;7.60;94.20
38209;DHT22;24016;52.102;11.584;2023-03-01T13:59:22;7.40;93.90
38209;DHT22;24016;52.102;11.584;2023-03-01T14:01:59;7.30;93.90
38209;DHT22;24016;52.102;11.584;2023-03-01T14:04:29;7.20;95.50
38209;DHT22;24016;52.102;11.584;2023-03-01T14:07:20;7.10;96.30
38209;DHT22;24016;52.102;11.584;2023-03-01T14:09:49;7.10;96.00
38209;DHT22;24016;52.102;11.584;2023-03-01T14:12:38;7.10;95.50
38209;DHT22;24016;52.102;11.584;2023-03-01T14:17:58;7.10;96.10
38209;DHT22;24016;52.102;11.584;2023-03-01T14:20:28;7.00;96.20
38209;DHT22;24016;52.102;11.584;2023-03-01T14:22:57;6.90;96.90
38209;DHT22;24016;52.102;11.584;2023-03-01T14:25:31;6.80;97.30
38209;DHT22;24016;52.102;11.584;2023-03-01T14:28:13;6.70;96.80
38209;DHT22;24016;52.102;11.584;2023-03-01T14:30:43;6.70;96.60
38209;DHT22;24016;52.102;11.584;2023-03-01T14:33:32;6.70;96.50
38209;DHT22;24016;52.102;11.584;2023-03-01T14:36:10;6.60;96.60
38209;DHT22;24016;52.102;11.584;2023-03-01T14:38:41;6.50;96.50
38209;DHT22;24016;52.102;11.584;2023-03-01T14:41:17;6.40;96.70
38209;DHT22;24016;52.102;11.584;2023-03-01T14:43:46;6.40;97.20
38209;DHT22;24016;52.102;11.584;2023-03-01T14:46:33;6.40;97.50
38209;DHT22;24016;52.102;11.584;2023-03-01T14:49:05;6.40;97.60
38209;DHT22;24016;52.102;11.584;2023-03-01T14:51:37;6.30;98.30
38209;DHT22;24016;52.102;11.584;2023-03-01T14:54:04;6.20;98.10
38209;DHT22;24016;52.102;11.584;2023-03-01T14:56:43;6.10;97.60
38209;DHT22;24016;52.102;11.584;2023-03-01T14:59:11;6.00;98.10
38209;DHT22;24016;52.102;11.584;2023-03-01T15:01:36;6.00;97.90
38209;DHT22;24016;52.102;11.584;2023-03-01T15:04:02;5.90;97.40
38209;DHT22;24016;52.102;11.584;2023-03-01T15:06:28;5.90;97.30
38209;DHT22;24016;52.102;11.584;2023-03-01T15:08:54;6.00;98.00
38209;DHT22;24016;52.102;11.584;2023-03-01T15:11:30;6.00;97.60
38209;DHT22;24016;52.102;11.584;2023-03-01T15:13:56;6.00;98.40
38209;DHT22;24016;52.102;11.584;2023-03-01T15:16:24;5.90;98.40
38209;DHT22;24016;52.102;11.584;2023-03-01T15:18:57;5.90;98.20
38209;DHT22;24016;52.102;11.584;2023-03-01T15:21:26;5.80;98.60
38209;DHT22;24016;52.102;11.584;2023-03-01T15:26:55;5.70;98.60
38209;DHT22;24016;52.102;11.584;2023-03-01T15:29:25;5.60;97.80
38209;DHT22;24016;52.102;11.584;2023-03-01T15:32:00;5.60;98.40
38209;DHT22;24016;52.102;11.584;2023-03-01T15:34:34;5.60;98.70
38209;DHT22;24016;52.102;11.584;2023-03-01T15:37:04;5.60;98.30
38209;DHT22;24016;52.102;11.584;2023-03-01T15:39:34;5.70;98.70
38209;DHT22;24016;52.102;11.584;2023-03-01T15:44:32;5.60;98.60
38209;DHT22;24016;52.102;11.584;2023-03-01T15:46:59;5.50;99.00
38209;DHT22;24016;52.102;11.584;2023-03-01T15:49:36;5.40;99.90
38209;DHT22;24016;52.102;11.584;2023-03-01T15:52:03;5.40;99.10
38209;DHT22;24016;52.102;11.584;2023-03-01T15:54:29;5.40;97.80
38209;DHT22;24016;52.102;11.584;2023-03-01T15:56:55;5.30;97.70
38209;DHT22;24016;52.102;11.584;2023-03-01T15:59:21;5.30;97.30
38209;DHT22;24016;52.102;11.584;2023-03-01T16:01:47;5.30;98.50
38209;DHT22;24016;52.102;11.584;2023-03-01T16:04:16;5.30;97.80
38209;DHT22;24016;52.102;11.584;2023-03-01T16:06:50;5.10;98.70
38209;DHT22;24016;52.102;11.584;2023-03-01T16:09:25;4.90;98.40
38209;DHT22;24016;52.102;11.584;2023-03-01T16:11:52;4.80;99.50
38209;DHT22;24016;52.102;11.584;2023-03-01T16:14:19;4.70;98.70
38209;DHT22;24016;52.102;11.584;2023-03-01T16:16:46;4.60;98.60
38209;DHT22;24016;52.102;11.584;2023-03-01T16:19:13;4.60;98.50
38209;DHT22;24016;52.102;11.584;2023-03-01T16:21:39;4.60;99.90
38209;DHT22;24016;52.102;11.584;2023-03-01T16:24:05;4.70;98.30
38209;DHT22;24016;52.102;11.584;2023-03-01T16:26:31;4.70;96.80
38209;DHT22;24016;52.102;11.584;2023-03-01T16:28:58;4.60;97.80
38209;DHT22;24016;52.102;11.584;2023-03-01T16:31:24;4.60;97.20
38209;DHT22;24016;52.102;11.584;2023-03-01T16:33:57;4.50;96.60
38209;DHT22;24016;52.102;11.584;2023-03-01T16:36:24;4.40;97.40
38209;DHT22;24016;52.102;11.584;2023-03-01T16:38:51;4.30;97.00
38209;DHT22;24016;52.102;11.584;2023-03-01T16:41:19;4.20;96.80
38209;DHT22;24016;52.102;11.584;2023-03-01T16:43:45;4.10;97.80
38209;DHT22;24016;52.102;11.584;2023-03-01T16:46:16;3.90;98.00
38209;DHT22;24016;52.102;11.584;2023-03-01T16:48:43;3.70;98.40